Terminal Aerodrome Forecast
Issued by NWS St Louis, MO

Home | Current Version | Previous Version | Text Only | Print | Product List | Glossary On
Versions: 1 2 3 4 5 6 7 8 9 10 11 12 13 14 15 16 17 18 19 20 21 22 23 24 25 26 27
000
FTUS43 KLSX 232300
TAFCOU
TAF
KCOU 232338Z 2400/2424 03011KT P6SM SCT025 BKN120
     FM240900 07011KT 4SM -SHRA VCTS OVC015CB
     FM241300 09011KT 6SM -SHRA OVC020
     FM241800 12012KT P6SM BKN025=

USA.gov is the U.S. government's official web portal to all federal, state and local government web resources and services.